Hasvik — LNAR — position and weather

sailwx.info

Track history (hours):
 
Tides and Currents Weather Stations Pressure Air Temp Water Temp Dewpoint Dewpoint Depression Visibility Wind Speed Wind Dir Waves Ship Positions

Hasvik

Last reported at 2017-Oct-20 01:30 UTC. Time now 2017-Oct-20 01:41 UTC.
Position N 70°29' E 022°10'.

Length 62 m; draft 3.5 m.

Type: Passenger vessel. MMSI: 258287000.

Date/timePositionNaut miles runAvg speedWind from/ knotsBaromVisibWave heightAir tempDewpointWater temp
2017-Oct-20 01:30N 70°29' E 022°10'0 0.0
2017-Oct-20 01:00N 70°29' E 022°10'0 0.0
2017-Oct-20 00:30N 70°29' E 022°10'0 0.0
2017-Oct-20 00:00N 70°29' E 022°10'0 0.0
2017-Oct-19 23:29N 70°29' E 022°10'0 0.0
2017-Oct-19 23:00N 70°29' E 022°10'0 0.0
2017-Oct-19 22:30N 70°29' E 022°10'0 0.0
2017-Oct-19 22:00N 70°29' E 022°10'0 0.0
2017-Oct-19 21:30N 70°29' E 022°10'0 0.0
2017-Oct-19 21:00N 70°29' E 022°10'0 0.0
2017-Oct-19 20:30N 70°29' E 022°10'0 0.0
2017-Oct-19 20:00N 70°29' E 022°10'0 0.0
2017-Oct-19 19:30N 70°29' E 022°10'4 8.2
2017-Oct-19 19:00N 70°25' E 022°13'611.6
2017-Oct-19 18:30N 70°19' E 022°17'611.2
2017-Oct-19 18:00N 70°14' E 022°21'2 3.5
2017-Oct-19 17:30N 70°14' E 022°16'1 3.0
2017-Oct-19 17:00N 70°15' E 022°20'612.1
2017-Oct-19 16:30N 70°20' E 022°17'612.3
2017-Oct-19 16:00N 70°26' E 022°13'2 5.0
2017-Oct-19 15:30N 70°29' E 022°10'611.6
2017-Oct-19 15:00N 70°23' E 022°15'611.6
2017-Oct-19 14:29N 70°17' E 022°18'3 7.0
2017-Oct-19 14:00N 70°14' E 022°21'0 0.0
2017-Oct-19 13:29N 70°14' E 022°21'0 0.0
2017-Oct-19 13:00N 70°14' E 022°21'0 0.0
2017-Oct-19 12:30N 70°14' E 022°21'0 0.0
2017-Oct-19 12:00N 70°14' E 022°21'0 0.0
2017-Oct-19 11:30N 70°14' E 022°21'0 0.0
2017-Oct-19 11:00N 70°14' E 022°21'0 0.0
2017-Oct-19 10:30N 70°14' E 022°21'0 0.0
2017-Oct-19 10:00N 70°14' E 022°21'0 0.0
2017-Oct-19 09:30N 70°14' E 022°21'2 4.4
2017-Oct-19 09:00N 70°16' E 022°19'611.8
2017-Oct-19 08:30N 70°22' E 022°15'611.8
2017-Oct-19 08:00N 70°28' E 022°12'0 0.7
2017-Oct-19 07:29N 70°28' E 022°11'611.7
2017-Oct-19 07:00N 70°22' E 022°15'611.9
2017-Oct-19 06:30N 70°17' E 022°19'3 5.6
2017-Oct-19 06:00N 70°14' E 022°17'1 2.8
2017-Oct-19 05:30N 70°14' E 022°21'4 8.5
2017-Oct-19 05:00N 70°18' E 022°18'611.9
2017-Oct-19 04:30N 70°24' E 022°15'510.7
2017-Oct-19 04:00N 70°29' E 022°10'0 0.1
2017-Oct-19 03:30N 70°29' E 022°10'0 0.0
2017-Oct-19 03:01N 70°29' E 022°10'0 0.0
2017-Oct-19 02:30N 70°29' E 022°10'0 0.0
2017-Oct-19 01:59N 70°29' E 022°10'0 0.0
2017-Oct-19 01:28N 70°29' E 022°10'0 0.0
2017-Oct-19 00:58N 70°29' E 022°10'0 0.0
2017-Oct-19 00:29N 70°29' E 022°10'0 0.0
2017-Oct-18 23:58N 70°29' E 022°10'0 0.0
2017-Oct-18 23:28N 70°29' E 022°10'0 0.0
2017-Oct-18 22:59N 70°29' E 022°10'0 0.0
2017-Oct-18 22:29N 70°29' E 022°10'0 0.0
2017-Oct-18 21:58N 70°29' E 022°10'0 0.0
2017-Oct-18 21:28N 70°29' E 022°10'0 0.0
2017-Oct-18 20:58N 70°29' E 022°10'0 0.0
2017-Oct-18 20:28N 70°29' E 022°10'0 0.0
2017-Oct-18 19:58N 70°29' E 022°10'0 0.0
2017-Oct-18 19:28N 70°29' E 022°10'4 9.1
2017-Oct-18 19:00N 70°25' E 022°14'611.5
2017-Oct-18 18:30N 70°19' E 022°17'511.1
2017-Oct-18 18:00N 70°14' E 022°21'2 3.6
2017-Oct-18 17:30N 70°14' E 022°16'2 3.4
2017-Oct-18 17:00N 70°15' E 022°20'611.9
2017-Oct-18 16:30N 70°21' E 022°17'612.1
2017-Oct-18 16:00N 70°27' E 022°13'2 4.5
2017-Oct-18 15:30N 70°29' E 022°10'611.6
2017-Oct-18 15:00N 70°23' E 022°15'10 9.4
2017-Oct-18 14:00N 70°14' E 022°21'0 0.0
2017-Oct-18 13:30N 70°14' E 022°21'0 0.3
2017-Oct-18 13:00N 70°14' E 022°21'0 0.3
2017-Oct-18 12:30N 70°14' E 022°21'0 0.0
2017-Oct-18 12:00N 70°14' E 022°21'0 0.0
2017-Oct-18 11:30N 70°14' E 022°21'0 0.0
2017-Oct-18 11:00N 70°14' E 022°21'0 0.0
2017-Oct-18 10:30N 70°14' E 022°21'0 0.0
2017-Oct-18 10:00N 70°14' E 022°21'0 0.0
2017-Oct-18 09:30N 70°14' E 022°21'2 4.2
2017-Oct-18 09:00N 70°16' E 022°19'611.6
2017-Oct-18 08:29N 70°22' E 022°15'612.1
2017-Oct-18 08:00N 70°28' E 022°12'0 0.3
2017-Oct-18 07:30N 70°27' E 022°12'611.1
2017-Oct-18 06:59N 70°22' E 022°15'611.5
2017-Oct-18 06:30N 70°16' E 022°19'3 5.1
2017-Oct-18 06:00N 70°14' E 022°18'1 2.2
2017-Oct-18 05:30N 70°14' E 022°21'4 8.6
2017-Oct-18 04:59N 70°18' E 022°17'611.7
2017-Oct-18 04:30N 70°24' E 022°14'611.0
2017-Oct-18 04:00N 70°29' E 022°10'0 0.0
2017-Oct-18 03:30N 70°29' E 022°10'0 0.0
2017-Oct-18 03:00N 70°29' E 022°10'0 0.0
2017-Oct-18 02:30N 70°29' E 022°10'0 0.0
2017-Oct-18 02:00N 70°29' E 022°10'0 0.0
2017-Oct-18 01:30N 70°29' E 022°10'0 0.0
2017-Oct-18 01:00N 70°29' E 022°10'0 0.0
2017-Oct-18 00:30N 70°29' E 022°10'0 0.0
2017-Oct-18 00:00N 70°29' E 022°10'0 0.0
2017-Oct-17 23:30N 70°29' E 022°10'0 0.0
2017-Oct-17 23:00N 70°29' E 022°10'0 0.0
2017-Oct-17 22:30N 70°29' E 022°10'0 0.0
2017-Oct-17 21:59N 70°29' E 022°10'0 0.0
2017-Oct-17 21:29N 70°29' E 022°10'0 0.0
2017-Oct-17 21:00N 70°29' E 022°10'0 0.0
2017-Oct-17 20:30N 70°29' E 022°10'0 0.0
2017-Oct-17 20:00N 70°29' E 022°10'0 0.0
2017-Oct-17 19:30N 70°29' E 022°10'4 8.3
2017-Oct-17 19:00N 70°25' E 022°14'611.7
2017-Oct-17 18:30N 70°19' E 022°17'611.2
2017-Oct-17 18:00N 70°14' E 022°21'2 3.6
2017-Oct-17 17:30N 70°14' E 022°16'2 4.0
2017-Oct-17 17:00N 70°15' E 022°19'611.6
2017-Oct-17 16:30N 70°21' E 022°16'611.8
2017-Oct-17 16:00N 70°27' E 022°13'2 3.9
2017-Oct-17 15:30N 70°29' E 022°11'611.6
2017-Oct-17 15:00N 70°23' E 022°15'611.8
2017-Oct-17 14:29N 70°17' E 022°18'3 7.1
2017-Oct-17 14:00N 70°14' E 022°21'0 0.1
2017-Oct-17 13:30N 70°14' E 022°21'0 0.0
2017-Oct-17 13:00N 70°14' E 022°21'0 0.0
2017-Oct-17 12:30N 70°14' E 022°21'0 0.0
2017-Oct-17 12:00N 70°14' E 022°21'0 0.0
2017-Oct-17 11:30N 70°14' E 022°21'0 0.0
2017-Oct-17 10:59N 70°14' E 022°21'3 5.9
2017-Oct-17 10:30N 70°17' E 022°19'612.0
2017-Oct-17 09:59N 70°23' E 022°15'612.1
2017-Oct-17 09:30N 70°28' E 022°11'2 3.5
2017-Oct-17 09:00N 70°27' E 022°12'611.6
2017-Oct-17 08:29N 70°21' E 022°16'611.7
2017-Oct-17 08:00N 70°15' E 022°20'2 4.0
2017-Oct-17 07:30N 70°14' E 022°16'2 3.7
2017-Oct-17 07:00N 70°14' E 022°21'4 8.5
2017-Oct-17 06:30N 70°18' E 022°15'611.4
2017-Oct-17 06:00N 70°20' E 022°00'611.2
2017-Oct-17 05:30N 70°17' E 021°48'4 7.4
2017-Oct-17 05:00N 70°13' E 021°43'0 0.0
2017-Oct-17 04:30N 70°13' E 021°43'0 0.0
2017-Oct-17 04:00N 70°13' E 021°43'0 0.0
2017-Oct-17 03:30N 70°13' E 021°43'0 0.0
2017-Oct-17 03:00N 70°13' E 021°43'0 0.0
2017-Oct-17 02:30N 70°13' E 021°43'0 0.0
2017-Oct-17 01:59N 70°13' E 021°43'0 0.0
2017-Oct-17 01:30N 70°13' E 021°43'0 0.0
2017-Oct-17 00:59N 70°13' E 021°43'0 0.0
2017-Oct-17 00:30N 70°13' E 021°43'0 0.0
2017-Oct-17 00:00N 70°13' E 021°43'0 0.0
2017-Oct-16 23:29N 70°13' E 021°43'0 0.0
2017-Oct-16 23:00N 70°13' E 021°43'0 0.0
2017-Oct-16 22:30N 70°13' E 021°43'0 0.0
2017-Oct-16 22:00N 70°13' E 021°43'0 0.0
2017-Oct-16 21:30N 70°13' E 021°43'0 0.0
2017-Oct-16 21:00N 70°13' E 021°43'0 0.0
2017-Oct-16 20:30N 70°13' E 021°43'0 0.0
2017-Oct-16 20:00N 70°13' E 021°43'0 0.0
2017-Oct-16 19:30N 70°13' E 021°43'0 0.0
2017-Oct-16 18:59N 70°13' E 021°43'3 5.7
2017-Oct-16 18:30N 70°16' E 021°46'611.4
2017-Oct-16 18:00N 70°20' E 021°57'510.9
2017-Oct-16 17:30N 70°18' E 022°12'510.4
2017-Oct-16 17:00N 70°14' E 022°21'0 0.0
2017-Oct-16 16:29N 70°14' E 022°21'0 0.0
2017-Oct-16 16:00N 70°14' E 022°21'0 0.0
2017-Oct-16 15:30N 70°14' E 022°21'0 0.2
2017-Oct-16 15:00N 70°14' E 022°21'4 4.1
2017-Oct-16 13:59N 70°18' E 022°18'611.7
2017-Oct-16 13:30N 70°24' E 022°14'511.2
2017-Oct-16 13:00N 70°29' E 022°10'0 0.0
2017-Oct-16 12:30N 70°29' E 022°10'0 0.0
2017-Oct-16 12:00N 70°29' E 022°10'0 0.0
2017-Oct-16 11:30N 70°29' E 022°10'0 0.0
2017-Oct-16 11:00N 70°29' E 022°10'0 0.0
2017-Oct-16 10:30N 70°29' E 022°10'0 0.0
2017-Oct-16 09:59N 70°29' E 022°10'0 0.0
2017-Oct-16 09:30N 70°29' E 022°10'2 4.8
2017-Oct-16 09:00N 70°27' E 022°13'611.5
2017-Oct-16 08:29N 70°21' E 022°16'611.6
2017-Oct-16 08:00N 70°16' E 022°20'2 4.2
2017-Oct-16 07:30N 70°14' E 022°16'2 3.8
2017-Oct-16 07:00N 70°14' E 022°21'5 9.3
2017-Oct-16 06:30N 70°18' E 022°14'611.5
2017-Oct-16 06:00N 70°20' E 021°58'611.6
2017-Oct-16 05:30N 70°16' E 021°46'3 6.2
2017-Oct-16 05:00N 70°13' E 021°43'0 0.0
2017-Oct-16 04:29N 70°13' E 021°43'0 0.0
2017-Oct-16 04:00N 70°13' E 021°43'0 0.0
2017-Oct-16 03:30N 70°13' E 021°43'0 0.0
2017-Oct-16 03:00N 70°13' E 021°43'0 0.0
2017-Oct-16 02:30N 70°13' E 021°43'0 0.0
2017-Oct-16 01:57N 70°13' E 021°43'0 0.0
2017-Oct-16 01:30N 70°13' E 021°43'0 0.0
2017-Oct-16 01:00N 70°13' E 021°43'0 0.0
2017-Oct-16 00:30N 70°13' E 021°43'0 0.0
2017-Oct-16 00:00N 70°13' E 021°43'0 0.0
2017-Oct-15 23:30N 70°13' E 021°43'0 0.0
2017-Oct-15 23:00N 70°13' E 021°43'0 0.0
2017-Oct-15 22:30N 70°13' E 021°43'0 0.0
2017-Oct-15 21:59N 70°13' E 021°43'0 0.0
2017-Oct-15 21:30N 70°13' E 021°43'0 0.0
2017-Oct-15 21:00N 70°13' E 021°43'0 0.0
2017-Oct-15 20:30N 70°13' E 021°43'0 0.0
2017-Oct-15 20:00N 70°13' E 021°43'0 0.0
2017-Oct-15 19:30N 70°13' E 021°43'2 4.8
2017-Oct-15 19:00N 70°15' E 021°47'1 2.2
2017-Oct-15 18:29N 70°16' E 021°47'611.3
2017-Oct-15 18:00N 70°20' E 021°58'611.7
2017-Oct-15 17:30N 70°18' E 022°14'5 9.7
2017-Oct-15 17:00N 70°14' E 022°21'3 6.1
2017-Oct-15 16:30N 70°17' E 022°18'611.1
2017-Oct-15 16:00N 70°20' E 022°04'5 9.5
2017-Oct-15 15:30N 70°18' E 021°51'3 6.5
2017-Oct-15 15:00N 70°15' E 021°46'2 1.5
2017-Oct-15 13:20N 70°13' E 021°43'0 0.0
2017-Oct-15 12:59N 70°13' E 021°43'0 0.0
2017-Oct-15 12:30N 70°13' E 021°43'0 0.0
2017-Oct-15 11:59N 70°13' E 021°43'0 0.0
2017-Oct-15 11:30N 70°13' E 021°43'0 0.0
2017-Oct-15 11:00N 70°13' E 021°43'0 0.0
2017-Oct-15 10:29N 70°13' E 021°43'0 0.0
2017-Oct-15 10:00N 70°13' E 021°43'0 0.0
2017-Oct-15 09:30N 70°13' E 021°43'0 0.0
2017-Oct-15 09:00N 70°13' E 021°43'0 0.0
2017-Oct-15 08:29N 70°13' E 021°43'0 0.0
2017-Oct-15 08:00N 70°13' E 021°43'0 0.0
2017-Oct-15 07:30N 70°13' E 021°43'0 0.0
2017-Oct-15 07:00N 70°13' E 021°43'0 0.0
2017-Oct-15 06:29N 70°13' E 021°43'0 0.0
2017-Oct-15 06:00N 70°13' E 021°43'0 0.0
2017-Oct-15 04:54N 70°13' E 021°43'0 0.0
2017-Oct-15 04:28N 70°13' E 021°43'0 0.0
2017-Oct-15 03:58N 70°13' E 021°43'0 0.0
2017-Oct-15 03:30N 70°13' E 021°43'0 0.0
2017-Oct-15 03:00N 70°13' E 021°43'0 0.0
2017-Oct-15 02:29N 70°13' E 021°43'0 0.0
2017-Oct-15 01:58N 70°13' E 021°43'0 0.0
2017-Oct-15 01:30N 70°13' E 021°43'0 0.0
2017-Oct-15 00:00N 70°13' E 021°43'0 0.0
2017-Oct-14 23:28N 70°13' E 021°43'0 0.0
2017-Oct-14 23:00N 70°13' E 021°43'0 0.0
2017-Oct-14 22:29N 70°13' E 021°43'0 0.0
2017-Oct-14 22:00N 70°13' E 021°43'0 0.0
2017-Oct-14 21:30N 70°13' E 021°43'0 0.0
2017-Oct-14 21:00N 70°13' E 021°43'0 0.0
2017-Oct-14 20:30N 70°13' E 021°43'0 0.0
2017-Oct-14 20:00N 70°13' E 021°43'0 0.0
2017-Oct-14 19:29N 70°13' E 021°43'0 0.0
2017-Oct-14 19:00N 70°13' E 021°43'0 0.0
2017-Oct-14 18:30N 70°13' E 021°43'0 0.0
2017-Oct-14 17:59N 70°13' E 021°43'0 0.0
2017-Oct-14 17:30N 70°13' E 021°43'0 0.0
2017-Oct-14 17:00N 70°13' E 021°43'0 0.0
2017-Oct-14 14:26N 70°13' E 021°43'0 0.0
2017-Oct-14 13:47N 70°13' E 021°43'0 0.0
2017-Oct-14 13:12N 70°13' E 021°43'0 0.0
2017-Oct-14 12:37N 70°13' E 021°43'0 0.0
2017-Oct-14 12:30N 70°13' E 021°43'0 0.0
2017-Oct-14 12:00N 70°13' E 021°43'0 0.0
2017-Oct-14 11:30N 70°13' E 021°43'0 0.0
2017-Oct-14 10:59N 70°13' E 021°43'0 0.0
2017-Oct-14 10:30N 70°13' E 021°43'0 0.0
2017-Oct-14 09:59N 70°13' E 021°43'0 0.0
2017-Oct-14 09:29N 70°13' E 021°43'0 0.0
2017-Oct-14 08:59N 70°13' E 021°43'0 0.0
2017-Oct-14 08:30N 70°13' E 021°43'0 0.0
2017-Oct-14 08:00N 70°13' E 021°43'0 0.0
2017-Oct-14 07:30N 70°13' E 021°43'0 0.0
2017-Oct-14 07:00N 70°13' E 021°43'0 0.0
2017-Oct-14 06:30N 70°13' E 021°43'0 0.0
2017-Oct-14 06:00N 70°13' E 021°43'0 0.0
2017-Oct-14 05:30N 70°13' E 021°43'0 0.0
2017-Oct-14 05:00N 70°13' E 021°43'0 0.0
2017-Oct-14 04:30N 70°13' E 021°43'0 0.0
2017-Oct-14 04:00N 70°13' E 021°43'0 0.0
2017-Oct-14 03:30N 70°13' E 021°43'0 0.0
2017-Oct-14 03:00N 70°13' E 021°43'0 0.0
2017-Oct-14 02:30N 70°13' E 021°43'0 0.0
2017-Oct-14 02:00N 70°13' E 021°43'0 0.0
2017-Oct-14 01:29N 70°13' E 021°43'0 0.0
2017-Oct-14 00:59N 70°13' E 021°43'0 0.0
2017-Oct-14 00:29N 70°13' E 021°43'0 0.0
2017-Oct-13 23:59N 70°13' E 021°43'0 0.0
2017-Oct-13 23:30N 70°13' E 021°43'0 0.0
2017-Oct-13 22:56N 70°13' E 021°43'0 0.0
2017-Oct-13 22:30N 70°13' E 021°43'0 0.0
2017-Oct-13 22:00N 70°13' E 021°43'0 0.0
2017-Oct-13 21:30N 70°13' E 021°43'0 0.0
2017-Oct-13 20:59N 70°13' E 021°43'0 0.0
2017-Oct-13 20:30N 70°13' E 021°43'0 0.0
2017-Oct-13 20:00N 70°13' E 021°43'0 0.0
2017-Oct-13 19:30N 70°13' E 021°43'0 0.7
2017-Oct-13 19:00N 70°13' E 021°44'3 5.4
2017-Oct-13 18:30N 70°16' E 021°46'611.4
2017-Oct-13 18:00N 70°20' E 021°57'611.2
2017-Oct-13 17:29N 70°18' E 022°13'510.3
2017-Oct-13 17:00N 70°14' E 022°21'0 0.0
2017-Oct-13 16:30N 70°14' E 022°21'0 0.0
2017-Oct-13 15:59N 70°14' E 022°21'0 0.0
2017-Oct-13 15:30N 70°14' E 022°21'1 1.3
2017-Oct-13 15:00N 70°14' E 022°19'1 1.3
2017-Oct-13 14:30N 70°14' E 022°21'5 9.2
2017-Oct-13 14:00N 70°18' E 022°18'611.7
2017-Oct-13 13:30N 70°24' E 022°14'510.1
2017-Oct-13 12:59N 70°29' E 022°10'0 0.0
2017-Oct-13 12:30N 70°29' E 022°10'0 0.0
2017-Oct-13 12:00N 70°29' E 022°10'0 0.0
2017-Oct-13 11:29N 70°29' E 022°10'0 0.0
2017-Oct-13 11:00N 70°29' E 022°10'0 0.0
2017-Oct-13 10:30N 70°29' E 022°10'0 0.0
2017-Oct-13 10:00N 70°29' E 022°10'0 0.0
2017-Oct-13 09:30N 70°29' E 022°10'2 3.9
2017-Oct-13 09:00N 70°27' E 022°12'611.9
2017-Oct-13 08:30N 70°21' E 022°16'611.8
2017-Oct-13 08:00N 70°16' E 022°20'2 4.2
2017-Oct-13 07:30N 70°14' E 022°16'2 3.7
2017-Oct-13 07:00N 70°14' E 022°21'4 8.8
2017-Oct-13 06:30N 70°18' E 022°15'611.6
2017-Oct-13 05:59N 70°20' E 021°59'3 0.3
2017-Oct-12 18:12N 70°18' E 021°52'312.0
2017-Oct-12 18:00N 70°20' E 021°57'611.2
2017-Oct-12 17:30N 70°18' E 022°13'510.4
2017-Oct-12 17:00N 70°14' E 022°21'0 0.0
2017-Oct-12 16:24N 70°14' E 022°21'0 0.0
2017-Oct-12 15:59N 70°14' E 022°21'0 0.0
2017-Oct-12 15:29N 70°14' E 022°21'1 1.0
2017-Oct-12 15:00N 70°14' E 022°20'1 1.0
2017-Oct-12 14:30N 70°14' E 022°21'4 8.8
2017-Oct-12 14:00N 70°18' E 022°18'611.5
2017-Oct-12 13:30N 70°24' E 022°14'510.9
2017-Oct-12 13:00N 70°29' E 022°10'0 0.1
2017-Oct-12 12:29N 70°29' E 022°10'0 0.0
2017-Oct-12 12:00N 70°29' E 022°10'0 0.0
2017-Oct-12 11:30N 70°29' E 022°10'0 0.0
2017-Oct-12 11:00N 70°29' E 022°10'0 0.0
2017-Oct-12 10:30N 70°29' E 022°10'0 0.0
2017-Oct-12 10:00N 70°29' E 022°10'0 0.0
2017-Oct-12 09:30N 70°29' E 022°10'2 3.4
2017-Oct-12 09:00N 70°28' E 022°12'612.2
2017-Oct-12 08:29N 70°22' E 022°16'612.2
2017-Oct-12 08:00N 70°16' E 022°20'2 4.5
2017-Oct-12 07:30N 70°14' E 022°16'2 3.7
2017-Oct-12 07:00N 70°14' E 022°21'4 8.6
2017-Oct-12 06:30N 70°18' E 022°15'611.5
2017-Oct-12 06:00N 70°20' E 021°60'611.5
2017-Oct-12 05:30N 70°16' E 021°47'3 7.0
2017-Oct-12 05:00N 70°13' E 021°43'0 0.0
2017-Oct-12 04:23N 70°13' E 021°43'0 0.0
2017-Oct-12 03:59N 70°13' E 021°43'0 0.0
2017-Oct-12 03:30N 70°13' E 021°43'0 0.0
2017-Oct-12 02:59N 70°13' E 021°43'0 0.0
2017-Oct-12 02:29N 70°13' E 021°43'0 0.0
2017-Oct-12 02:00N 70°13' E 021°43'0 0.0
2017-Oct-12 01:30N 70°13' E 021°43'0 0.0
2017-Oct-12 01:00N 70°13' E 021°43'0 0.0
2017-Oct-12 00:30N 70°13' E 021°43'0 0.0
2017-Oct-12 00:00N 70°13' E 021°43'0 0.0
2017-Oct-11 23:30N 70°13' E 021°43'0 0.0
2017-Oct-11 23:00N 70°13' E 021°43'0 0.0
2017-Oct-11 22:30N 70°13' E 021°43'0 0.0
2017-Oct-11 22:00N 70°13' E 021°43'0 0.0
2017-Oct-11 21:30N 70°13' E 021°43'0 0.0
2017-Oct-11 21:00N 70°13' E 021°43'0 0.0
2017-Oct-11 20:30N 70°13' E 021°43'0 0.0
2017-Oct-11 20:00N 70°13' E 021°43'0 0.0
2017-Oct-11 19:30N 70°13' E 021°43'0 0.0
2017-Oct-11 19:00N 70°13' E 021°43'3 5.6
2017-Oct-11 18:30N 70°16' E 021°46'611.2
2017-Oct-11 18:00N 70°20' E 021°57'510.9
2017-Oct-11 17:30N 70°18' E 022°13'510.5
2017-Oct-11 17:00N 70°14' E 022°21'13 0.8
2017-Oct-11 00:00N 70°13' E 021°43'0 0.0
2017-Oct-10 23:30N 70°13' E 021°43'0 0.0
2017-Oct-10 23:00N 70°13' E 021°43'0 0.0
2017-Oct-10 22:30N 70°13' E 021°43'0 0.0
2017-Oct-10 22:00N 70°13' E 021°43'0 0.0
2017-Oct-10 21:30N 70°13' E 021°43'0 0.0
2017-Oct-10 21:00N 70°13' E 021°43'0 0.0
2017-Oct-10 20:30N 70°13' E 021°43'0 0.0
2017-Oct-10 20:00N 70°13' E 021°43'0 0.0
2017-Oct-10 19:30N 70°13' E 021°43'0 0.4
2017-Oct-10 19:00N 70°13' E 021°44'3 6.0
2017-Oct-10 18:30N 70°16' E 021°46'611.3
2017-Oct-10 18:00N 70°20' E 021°58'611.2
2017-Oct-10 17:30N 70°18' E 022°13'5 9.8
2017-Oct-10 17:00N 70°14' E 022°21'0 0.8
2017-Oct-10 16:30N 70°14' E 022°21'0 0.0
2017-Oct-10 15:59N 70°14' E 022°21'0 0.0
2017-Oct-10 15:30N 70°14' E 022°21'0 0.0
2017-Oct-10 15:00N 70°14' E 022°21'0 0.0
2017-Oct-10 14:00N 70°14' E 022°21'0 0.7
2017-Oct-10 13:30N 70°14' E 022°21'5 9.5
2017-Oct-10 13:00N 70°18' E 022°14'611.4
2017-Oct-10 12:30N 70°20' E 021°58'611.5
2017-Oct-10 12:00N 70°16' E 021°46'3 6.0
2017-Oct-10 11:30N 70°13' E 021°43'0 0.0
2017-Oct-10 11:00N 70°13' E 021°43'0 0.0
2017-Oct-10 10:30N 70°13' E 021°43'0 0.0
2017-Oct-10 09:59N 70°13' E 021°43'0 0.0
2017-Oct-10 09:30N 70°13' E 021°43'0 0.0
2017-Oct-10 09:00N 70°13' E 021°43'0 0.0
2017-Oct-10 08:29N 70°13' E 021°43'2 4.8
2017-Oct-10 07:59N 70°15' E 021°47'5 9.3
2017-Oct-10 07:30N 70°19' E 021°54'511.1
2017-Oct-10 07:00N 70°19' E 022°10'611.8
2017-Oct-10 06:30N 70°14' E 022°21'1 2.3
2017-Oct-10 06:00N 70°14' E 022°17'1 2.8
2017-Oct-10 05:30N 70°14' E 022°21'4 8.3
2017-Oct-10 05:00N 70°18' E 022°18'611.6
2017-Oct-10 04:30N 70°24' E 022°15'611.1
2017-Oct-10 04:00N 70°29' E 022°10'0 0.0
2017-Oct-10 03:30N 70°29' E 022°10'0 0.0
2017-Oct-10 03:00N 70°29' E 022°10'0 0.0
2017-Oct-10 02:30N 70°29' E 022°10'0 0.0
2017-Oct-10 02:00N 70°29' E 022°10'  
Track history (hours):
 
Tides and Currents Weather Stations Pressure Air Temp Water Temp Dewpoint Dewpoint Depression Visibility Wind Speed Wind Dir Waves Ship Positions

Hasvik

Last reported at 2017-Oct-20 01:30 UTC. Time now 2017-Oct-20 01:41 UTC.
Position N 70°29' E 022°10'.

Length 62 m; draft 3.5 m.

Type: Passenger vessel. MMSI: 258287000.

Date/timePositionNaut miles runAvg speedWind from/ knotsBaromVisibWave heightAir tempDewpointWater temp
2017-Oct-20 01:30N 70°29' E 022°10'0 0.0
2017-Oct-20 01:00N 70°29' E 022°10'0 0.0
2017-Oct-20 00:30N 70°29' E 022°10'0 0.0
2017-Oct-20 00:00N 70°29' E 022°10'0 0.0
2017-Oct-19 23:29N 70°29' E 022°10'0 0.0
2017-Oct-19 23:00N 70°29' E 022°10'0 0.0
2017-Oct-19 22:30N 70°29' E 022°10'0 0.0
2017-Oct-19 22:00N 70°29' E 022°10'0 0.0
2017-Oct-19 21:30N 70°29' E 022°10'0 0.0
2017-Oct-19 21:00N 70°29' E 022°10'0 0.0
2017-Oct-19 20:30N 70°29' E 022°10'0 0.0
2017-Oct-19 20:00N 70°29' E 022°10'0 0.0
2017-Oct-19 19:30N 70°29' E 022°10'4 8.2
2017-Oct-19 19:00N 70°25' E 022°13'611.6
2017-Oct-19 18:30N 70°19' E 022°17'611.2
2017-Oct-19 18:00N 70°14' E 022°21'2 3.5
2017-Oct-19 17:30N 70°14' E 022°16'1 3.0
2017-Oct-19 17:00N 70°15' E 022°20'612.1
2017-Oct-19 16:30N 70°20' E 022°17'612.3
2017-Oct-19 16:00N 70°26' E 022°13'2 5.0
2017-Oct-19 15:30N 70°29' E 022°10'611.6
2017-Oct-19 15:00N 70°23' E 022°15'611.6
2017-Oct-19 14:29N 70°17' E 022°18'3 7.0
2017-Oct-19 14:00N 70°14' E 022°21'0 0.0
2017-Oct-19 13:29N 70°14' E 022°21'0 0.0
2017-Oct-19 13:00N 70°14' E 022°21'0 0.0
2017-Oct-19 12:30N 70°14' E 022°21'0 0.0
2017-Oct-19 12:00N 70°14' E 022°21'0 0.0
2017-Oct-19 11:30N 70°14' E 022°21'0 0.0
2017-Oct-19 11:00N 70°14' E 022°21'0 0.0
2017-Oct-19 10:30N 70°14' E 022°21'0 0.0
2017-Oct-19 10:00N 70°14' E 022°21'0 0.0
2017-Oct-19 09:30N 70°14' E 022°21'2 4.4
2017-Oct-19 09:00N 70°16' E 022°19'611.8
2017-Oct-19 08:30N 70°22' E 022°15'611.8
2017-Oct-19 08:00N 70°28' E 022°12'0 0.7
2017-Oct-19 07:29N 70°28' E 022°11'611.7
2017-Oct-19 07:00N 70°22' E 022°15'611.9
2017-Oct-19 06:30N 70°17' E 022°19'3 5.6
2017-Oct-19 06:00N 70°14' E 022°17'1 2.8
2017-Oct-19 05:30N 70°14' E 022°21'4 8.5
2017-Oct-19 05:00N 70°18' E 022°18'611.9
2017-Oct-19 04:30N 70°24' E 022°15'510.7
2017-Oct-19 04:00N 70°29' E 022°10'0 0.1
2017-Oct-19 03:30N 70°29' E 022°10'0 0.0
2017-Oct-19 03:01N 70°29' E 022°10'0 0.0
2017-Oct-19 02:30N 70°29' E 022°10'0 0.0
2017-Oct-19 01:59N 70°29' E 022°10'0 0.0
2017-Oct-19 01:28N 70°29' E 022°10'0 0.0
2017-Oct-19 00:58N 70°29' E 022°10'0 0.0
2017-Oct-19 00:29N 70°29' E 022°10'0 0.0
2017-Oct-18 23:58N 70°29' E 022°10'0 0.0
2017-Oct-18 23:28N 70°29' E 022°10'0 0.0
2017-Oct-18 22:59N 70°29' E 022°10'0 0.0
2017-Oct-18 22:29N 70°29' E 022°10'0 0.0
2017-Oct-18 21:58N 70°29' E 022°10'0 0.0
2017-Oct-18 21:28N 70°29' E 022°10'0 0.0
2017-Oct-18 20:58N 70°29' E 022°10'0 0.0
2017-Oct-18 20:28N 70°29' E 022°10'0 0.0
2017-Oct-18 19:58N 70°29' E 022°10'0 0.0
2017-Oct-18 19:28N 70°29' E 022°10'4 9.1
2017-Oct-18 19:00N 70°25' E 022°14'611.5
2017-Oct-18 18:30N 70°19' E 022°17'511.1
2017-Oct-18 18:00N 70°14' E 022°21'2 3.6
2017-Oct-18 17:30N 70°14' E 022°16'2 3.4
2017-Oct-18 17:00N 70°15' E 022°20'611.9
2017-Oct-18 16:30N 70°21' E 022°17'612.1
2017-Oct-18 16:00N 70°27' E 022°13'2 4.5
2017-Oct-18 15:30N 70°29' E 022°10'611.6
2017-Oct-18 15:00N 70°23' E 022°15'10 9.4
2017-Oct-18 14:00N 70°14' E 022°21'0 0.0
2017-Oct-18 13:30N 70°14' E 022°21'0 0.3
2017-Oct-18 13:00N 70°14' E 022°21'0 0.3
2017-Oct-18 12:30N 70°14' E 022°21'0 0.0
2017-Oct-18 12:00N 70°14' E 022°21'0 0.0
2017-Oct-18 11:30N 70°14' E 022°21'0 0.0
2017-Oct-18 11:00N 70°14' E 022°21'0 0.0
2017-Oct-18 10:30N 70°14' E 022°21'0 0.0
2017-Oct-18 10:00N 70°14' E 022°21'0 0.0
2017-Oct-18 09:30N 70°14' E 022°21'2 4.2
2017-Oct-18 09:00N 70°16' E 022°19'611.6
2017-Oct-18 08:29N 70°22' E 022°15'612.1
2017-Oct-18 08:00N 70°28' E 022°12'0 0.3
2017-Oct-18 07:30N 70°27' E 022°12'611.1
2017-Oct-18 06:59N 70°22' E 022°15'611.5
2017-Oct-18 06:30N 70°16' E 022°19'3 5.1
2017-Oct-18 06:00N 70°14' E 022°18'1 2.2
2017-Oct-18 05:30N 70°14' E 022°21'4 8.6
2017-Oct-18 04:59N 70°18' E 022°17'611.7
2017-Oct-18 04:30N 70°24' E 022°14'611.0
2017-Oct-18 04:00N 70°29' E 022°10'0 0.0
2017-Oct-18 03:30N 70°29' E 022°10'0 0.0
2017-Oct-18 03:00N 70°29' E 022°10'0 0.0
2017-Oct-18 02:30N 70°29' E 022°10'0 0.0
2017-Oct-18 02:00N 70°29' E 022°10'0 0.0
2017-Oct-18 01:30N 70°29' E 022°10'0 0.0
2017-Oct-18 01:00N 70°29' E 022°10'0 0.0
2017-Oct-18 00:30N 70°29' E 022°10'0 0.0
2017-Oct-18 00:00N 70°29' E 022°10'0 0.0
2017-Oct-17 23:30N 70°29' E 022°10'0 0.0
2017-Oct-17 23:00N 70°29' E 022°10'0 0.0
2017-Oct-17 22:30N 70°29' E 022°10'0 0.0
2017-Oct-17 21:59N 70°29' E 022°10'0 0.0
2017-Oct-17 21:29N 70°29' E 022°10'0 0.0
2017-Oct-17 21:00N 70°29' E 022°10'0 0.0
2017-Oct-17 20:30N 70°29' E 022°10'0 0.0
2017-Oct-17 20:00N 70°29' E 022°10'0 0.0
2017-Oct-17 19:30N 70°29' E 022°10'4 8.3
2017-Oct-17 19:00N 70°25' E 022°14'611.7
2017-Oct-17 18:30N 70°19' E 022°17'611.2
2017-Oct-17 18:00N 70°14' E 022°21'2 3.6
2017-Oct-17 17:30N 70°14' E 022°16'2 4.0
2017-Oct-17 17:00N 70°15' E 022°19'611.6
2017-Oct-17 16:30N 70°21' E 022°16'611.8
2017-Oct-17 16:00N 70°27' E 022°13'2 3.9
2017-Oct-17 15:30N 70°29' E 022°11'611.6
2017-Oct-17 15:00N 70°23' E 022°15'611.8
2017-Oct-17 14:29N 70°17' E 022°18'3 7.1
2017-Oct-17 14:00N 70°14' E 022°21'0 0.1
2017-Oct-17 13:30N 70°14' E 022°21'0 0.0
2017-Oct-17 13:00N 70°14' E 022°21'0 0.0
2017-Oct-17 12:30N 70°14' E 022°21'0 0.0
2017-Oct-17 12:00N 70°14' E 022°21'0 0.0
2017-Oct-17 11:30N 70°14' E 022°21'0 0.0
2017-Oct-17 10:59N 70°14' E 022°21'3 5.9
2017-Oct-17 10:30N 70°17' E 022°19'612.0
2017-Oct-17 09:59N 70°23' E 022°15'612.1
2017-Oct-17 09:30N 70°28' E 022°11'2 3.5
2017-Oct-17 09:00N 70°27' E 022°12'611.6
2017-Oct-17 08:29N 70°21' E 022°16'611.7
2017-Oct-17 08:00N 70°15' E 022°20'2 4.0
2017-Oct-17 07:30N 70°14' E 022°16'2 3.7
2017-Oct-17 07:00N 70°14' E 022°21'4 8.5
2017-Oct-17 06:30N 70°18' E 022°15'611.4
2017-Oct-17 06:00N 70°20' E 022°00'611.2
2017-Oct-17 05:30N 70°17' E 021°48'4 7.4
2017-Oct-17 05:00N 70°13' E 021°43'0 0.0
2017-Oct-17 04:30N 70°13' E 021°43'0 0.0
2017-Oct-17 04:00N 70°13' E 021°43'0 0.0
2017-Oct-17 03:30N 70°13' E 021°43'0 0.0
2017-Oct-17 03:00N 70°13' E 021°43'0 0.0
2017-Oct-17 02:30N 70°13' E 021°43'0 0.0
2017-Oct-17 01:59N 70°13' E 021°43'0 0.0
2017-Oct-17 01:30N 70°13' E 021°43'0 0.0
2017-Oct-17 00:59N 70°13' E 021°43'0 0.0
2017-Oct-17 00:30N 70°13' E 021°43'0 0.0
2017-Oct-17 00:00N 70°13' E 021°43'0 0.0
2017-Oct-16 23:29N 70°13' E 021°43'0 0.0
2017-Oct-16 23:00N 70°13' E 021°43'0 0.0
2017-Oct-16 22:30N 70°13' E 021°43'0 0.0
2017-Oct-16 22:00N 70°13' E 021°43'0 0.0
2017-Oct-16 21:30N 70°13' E 021°43'0 0.0
2017-Oct-16 21:00N 70°13' E 021°43'0 0.0
2017-Oct-16 20:30N 70°13' E 021°43'0 0.0
2017-Oct-16 20:00N 70°13' E 021°43'0 0.0
2017-Oct-16 19:30N 70°13' E 021°43'0 0.0
2017-Oct-16 18:59N 70°13' E 021°43'3 5.7
2017-Oct-16 18:30N 70°16' E 021°46'611.4
2017-Oct-16 18:00N 70°20' E 021°57'510.9
2017-Oct-16 17:30N 70°18' E 022°12'510.4
2017-Oct-16 17:00N 70°14' E 022°21'0 0.0
2017-Oct-16 16:29N 70°14' E 022°21'0 0.0
2017-Oct-16 16:00N 70°14' E 022°21'0 0.0
2017-Oct-16 15:30N 70°14' E 022°21'0 0.2
2017-Oct-16 15:00N 70°14' E 022°21'4 4.1
2017-Oct-16 13:59N 70°18' E 022°18'611.7
2017-Oct-16 13:30N 70°24' E 022°14'511.2
2017-Oct-16 13:00N 70°29' E 022°10'0 0.0
2017-Oct-16 12:30N 70°29' E 022°10'0 0.0
2017-Oct-16 12:00N 70°29' E 022°10'0 0.0
2017-Oct-16 11:30N 70°29' E 022°10'0 0.0
2017-Oct-16 11:00N 70°29' E 022°10'0 0.0
2017-Oct-16 10:30N 70°29' E 022°10'0 0.0
2017-Oct-16 09:59N 70°29' E 022°10'0 0.0
2017-Oct-16 09:30N 70°29' E 022°10'2 4.8
2017-Oct-16 09:00N 70°27' E 022°13'611.5
2017-Oct-16 08:29N 70°21' E 022°16'611.6
2017-Oct-16 08:00N 70°16' E 022°20'2 4.2
2017-Oct-16 07:30N 70°14' E 022°16'2 3.8
2017-Oct-16 07:00N 70°14' E 022°21'5 9.3
2017-Oct-16 06:30N 70°18' E 022°14'611.5
2017-Oct-16 06:00N 70°20' E 021°58'611.6
2017-Oct-16 05:30N 70°16' E 021°46'3 6.2
2017-Oct-16 05:00N 70°13' E 021°43'0 0.0
2017-Oct-16 04:29N 70°13' E 021°43'0 0.0
2017-Oct-16 04:00N 70°13' E 021°43'0 0.0
2017-Oct-16 03:30N 70°13' E 021°43'0 0.0
2017-Oct-16 03:00N 70°13' E 021°43'0 0.0
2017-Oct-16 02:30N 70°13' E 021°43'0 0.0
2017-Oct-16 01:57N 70°13' E 021°43'0 0.0
2017-Oct-16 01:30N 70°13' E 021°43'0 0.0
2017-Oct-16 01:00N 70°13' E 021°43'0 0.0
2017-Oct-16 00:30N 70°13' E 021°43'0 0.0
2017-Oct-16 00:00N 70°13' E 021°43'0 0.0
2017-Oct-15 23:30N 70°13' E 021°43'0 0.0
2017-Oct-15 23:00N 70°13' E 021°43'0 0.0
2017-Oct-15 22:30N 70°13' E 021°43'0 0.0
2017-Oct-15 21:59N 70°13' E 021°43'0 0.0
2017-Oct-15 21:30N 70°13' E 021°43'0 0.0
2017-Oct-15 21:00N 70°13' E 021°43'0 0.0
2017-Oct-15 20:30N 70°13' E 021°43'0 0.0
2017-Oct-15 20:00N 70°13' E 021°43'0 0.0
2017-Oct-15 19:30N 70°13' E 021°43'2 4.8
2017-Oct-15 19:00N 70°15' E 021°47'1 2.2
2017-Oct-15 18:29N 70°16' E 021°47'611.3
2017-Oct-15 18:00N 70°20' E 021°58'611.7
2017-Oct-15 17:30N 70°18' E 022°14'5 9.7
2017-Oct-15 17:00N 70°14' E 022°21'3 6.1
2017-Oct-15 16:30N 70°17' E 022°18'611.1
2017-Oct-15 16:00N 70°20' E 022°04'5 9.5
2017-Oct-15 15:30N 70°18' E 021°51'3 6.5
2017-Oct-15 15:00N 70°15' E 021°46'2 1.5
2017-Oct-15 13:20N 70°13' E 021°43'0 0.0
2017-Oct-15 12:59N 70°13' E 021°43'0 0.0
2017-Oct-15 12:30N 70°13' E 021°43'0 0.0
2017-Oct-15 11:59N 70°13' E 021°43'0 0.0
2017-Oct-15 11:30N 70°13' E 021°43'0 0.0
2017-Oct-15 11:00N 70°13' E 021°43'0 0.0
2017-Oct-15 10:29N 70°13' E 021°43'0 0.0
2017-Oct-15 10:00N 70°13' E 021°43'0 0.0
2017-Oct-15 09:30N 70°13' E 021°43'0 0.0
2017-Oct-15 09:00N 70°13' E 021°43'0 0.0
2017-Oct-15 08:29N 70°13' E 021°43'0 0.0
2017-Oct-15 08:00N 70°13' E 021°43'0 0.0
2017-Oct-15 07:30N 70°13' E 021°43'0 0.0
2017-Oct-15 07:00N 70°13' E 021°43'0 0.0
2017-Oct-15 06:29N 70°13' E 021°43'0 0.0
2017-Oct-15 06:00N 70°13' E 021°43'0 0.0
2017-Oct-15 04:54N 70°13' E 021°43'0 0.0
2017-Oct-15 04:28N 70°13' E 021°43'0 0.0
2017-Oct-15 03:58N 70°13' E 021°43'0 0.0
2017-Oct-15 03:30N 70°13' E 021°43'0 0.0
2017-Oct-15 03:00N 70°13' E 021°43'0 0.0
2017-Oct-15 02:29N 70°13' E 021°43'0 0.0
2017-Oct-15 01:58N 70°13' E 021°43'0 0.0
2017-Oct-15 01:30N 70°13' E 021°43'0 0.0
2017-Oct-15 00:00N 70°13' E 021°43'0 0.0
2017-Oct-14 23:28N 70°13' E 021°43'0 0.0
2017-Oct-14 23:00N 70°13' E 021°43'0 0.0
2017-Oct-14 22:29N 70°13' E 021°43'0 0.0
2017-Oct-14 22:00N 70°13' E 021°43'0 0.0
2017-Oct-14 21:30N 70°13' E 021°43'0 0.0
2017-Oct-14 21:00N 70°13' E 021°43'0 0.0
2017-Oct-14 20:30N 70°13' E 021°43'0 0.0
2017-Oct-14 20:00N 70°13' E 021°43'0 0.0
2017-Oct-14 19:29N 70°13' E 021°43'0 0.0
2017-Oct-14 19:00N 70°13' E 021°43'0 0.0
2017-Oct-14 18:30N 70°13' E 021°43'0 0.0
2017-Oct-14 17:59N 70°13' E 021°43'0 0.0
2017-Oct-14 17:30N 70°13' E 021°43'0 0.0
2017-Oct-14 17:00N 70°13' E 021°43'0 0.0
2017-Oct-14 14:26N 70°13' E 021°43'0 0.0
2017-Oct-14 13:47N 70°13' E 021°43'0 0.0
2017-Oct-14 13:12N 70°13' E 021°43'0 0.0
2017-Oct-14 12:37N 70°13' E 021°43'0 0.0
2017-Oct-14 12:30N 70°13' E 021°43'0 0.0
2017-Oct-14 12:00N 70°13' E 021°43'0 0.0
2017-Oct-14 11:30N 70°13' E 021°43'0 0.0
2017-Oct-14 10:59N 70°13' E 021°43'0 0.0
2017-Oct-14 10:30N 70°13' E 021°43'0 0.0
2017-Oct-14 09:59N 70°13' E 021°43'0 0.0
2017-Oct-14 09:29N 70°13' E 021°43'0 0.0
2017-Oct-14 08:59N 70°13' E 021°43'0 0.0
2017-Oct-14 08:30N 70°13' E 021°43'0 0.0
2017-Oct-14 08:00N 70°13' E 021°43'0 0.0
2017-Oct-14 07:30N 70°13' E 021°43'0 0.0
2017-Oct-14 07:00N 70°13' E 021°43'0 0.0
2017-Oct-14 06:30N 70°13' E 021°43'0 0.0
2017-Oct-14 06:00N 70°13' E 021°43'0 0.0
2017-Oct-14 05:30N 70°13' E 021°43'0 0.0
2017-Oct-14 05:00N 70°13' E 021°43'0 0.0
2017-Oct-14 04:30N 70°13' E 021°43'0 0.0
2017-Oct-14 04:00N 70°13' E 021°43'0 0.0
2017-Oct-14 03:30N 70°13' E 021°43'0 0.0
2017-Oct-14 03:00N 70°13' E 021°43'0 0.0
2017-Oct-14 02:30N 70°13' E 021°43'0 0.0
2017-Oct-14 02:00N 70°13' E 021°43'0 0.0
2017-Oct-14 01:29N 70°13' E 021°43'0 0.0
2017-Oct-14 00:59N 70°13' E 021°43'0 0.0
2017-Oct-14 00:29N 70°13' E 021°43'0 0.0
2017-Oct-13 23:59N 70°13' E 021°43'0 0.0
2017-Oct-13 23:30N 70°13' E 021°43'0 0.0
2017-Oct-13 22:56N 70°13' E 021°43'0 0.0
2017-Oct-13 22:30N 70°13' E 021°43'0 0.0
2017-Oct-13 22:00N 70°13' E 021°43'0 0.0
2017-Oct-13 21:30N 70°13' E 021°43'0 0.0
2017-Oct-13 20:59N 70°13' E 021°43'0 0.0
2017-Oct-13 20:30N 70°13' E 021°43'0 0.0
2017-Oct-13 20:00N 70°13' E 021°43'0 0.0
2017-Oct-13 19:30N 70°13' E 021°43'0 0.7
2017-Oct-13 19:00N 70°13' E 021°44'3 5.4
2017-Oct-13 18:30N 70°16' E 021°46'611.4
2017-Oct-13 18:00N 70°20' E 021°57'611.2
2017-Oct-13 17:29N 70°18' E 022°13'510.3
2017-Oct-13 17:00N 70°14' E 022°21'0 0.0
2017-Oct-13 16:30N 70°14' E 022°21'0 0.0
2017-Oct-13 15:59N 70°14' E 022°21'0 0.0
2017-Oct-13 15:30N 70°14' E 022°21'1 1.3
2017-Oct-13 15:00N 70°14' E 022°19'1 1.3
2017-Oct-13 14:30N 70°14' E 022°21'5 9.2
2017-Oct-13 14:00N 70°18' E 022°18'611.7
2017-Oct-13 13:30N 70°24' E 022°14'510.1
2017-Oct-13 12:59N 70°29' E 022°10'0 0.0
2017-Oct-13 12:30N 70°29' E 022°10'0 0.0
2017-Oct-13 12:00N 70°29' E 022°10'0 0.0
2017-Oct-13 11:29N 70°29' E 022°10'0 0.0
2017-Oct-13 11:00N 70°29' E 022°10'0 0.0
2017-Oct-13 10:30N 70°29' E 022°10'0 0.0
2017-Oct-13 10:00N 70°29' E 022°10'0 0.0
2017-Oct-13 09:30N 70°29' E 022°10'2 3.9
2017-Oct-13 09:00N 70°27' E 022°12'611.9
2017-Oct-13 08:30N 70°21' E 022°16'611.8
2017-Oct-13 08:00N 70°16' E 022°20'2 4.2
2017-Oct-13 07:30N 70°14' E 022°16'2 3.7
2017-Oct-13 07:00N 70°14' E 022°21'4 8.8
2017-Oct-13 06:30N 70°18' E 022°15'611.6
2017-Oct-13 05:59N 70°20' E 021°59'3 0.3
2017-Oct-12 18:12N 70°18' E 021°52'312.0
2017-Oct-12 18:00N 70°20' E 021°57'611.2
2017-Oct-12 17:30N 70°18' E 022°13'510.4
2017-Oct-12 17:00N 70°14' E 022°21'0 0.0
2017-Oct-12 16:24N 70°14' E 022°21'0 0.0
2017-Oct-12 15:59N 70°14' E 022°21'0 0.0
2017-Oct-12 15:29N 70°14' E 022°21'1 1.0
2017-Oct-12 15:00N 70°14' E 022°20'1 1.0
2017-Oct-12 14:30N 70°14' E 022°21'4 8.8
2017-Oct-12 14:00N 70°18' E 022°18'611.5
2017-Oct-12 13:30N 70°24' E 022°14'510.9
2017-Oct-12 13:00N 70°29' E 022°10'0 0.1
2017-Oct-12 12:29N 70°29' E 022°10'0 0.0
2017-Oct-12 12:00N 70°29' E 022°10'0 0.0
2017-Oct-12 11:30N 70°29' E 022°10'0 0.0
2017-Oct-12 11:00N 70°29' E 022°10'0 0.0
2017-Oct-12 10:30N 70°29' E 022°10'0 0.0
2017-Oct-12 10:00N 70°29' E 022°10'0 0.0
2017-Oct-12 09:30N 70°29' E 022°10'2 3.4
2017-Oct-12 09:00N 70°28' E 022°12'612.2
2017-Oct-12 08:29N 70°22' E 022°16'612.2
2017-Oct-12 08:00N 70°16' E 022°20'2 4.5
2017-Oct-12 07:30N 70°14' E 022°16'2 3.7
2017-Oct-12 07:00N 70°14' E 022°21'4 8.6
2017-Oct-12 06:30N 70°18' E 022°15'611.5
2017-Oct-12 06:00N 70°20' E 021°60'611.5
2017-Oct-12 05:30N 70°16' E 021°47'3 7.0
2017-Oct-12 05:00N 70°13' E 021°43'0 0.0
2017-Oct-12 04:23N 70°13' E 021°43'0 0.0
2017-Oct-12 03:59N 70°13' E 021°43'0 0.0
2017-Oct-12 03:30N 70°13' E 021°43'0 0.0
2017-Oct-12 02:59N 70°13' E 021°43'0 0.0
2017-Oct-12 02:29N 70°13' E 021°43'0 0.0
2017-Oct-12 02:00N 70°13' E 021°43'0 0.0
2017-Oct-12 01:30N 70°13' E 021°43'0 0.0
2017-Oct-12 01:00N 70°13' E 021°43'0 0.0
2017-Oct-12 00:30N 70°13' E 021°43'0 0.0
2017-Oct-12 00:00N 70°13' E 021°43'0 0.0
2017-Oct-11 23:30N 70°13' E 021°43'0 0.0
2017-Oct-11 23:00N 70°13' E 021°43'0 0.0
2017-Oct-11 22:30N 70°13' E 021°43'0 0.0
2017-Oct-11 22:00N 70°13' E 021°43'0 0.0
2017-Oct-11 21:30N 70°13' E 021°43'0 0.0
2017-Oct-11 21:00N 70°13' E 021°43'0 0.0
2017-Oct-11 20:30N 70°13' E 021°43'0 0.0
2017-Oct-11 20:00N 70°13' E 021°43'0 0.0
2017-Oct-11 19:30N 70°13' E 021°43'0 0.0
2017-Oct-11 19:00N 70°13' E 021°43'3 5.6
2017-Oct-11 18:30N 70°16' E 021°46'611.2
2017-Oct-11 18:00N 70°20' E 021°57'510.9
2017-Oct-11 17:30N 70°18' E 022°13'510.5
2017-Oct-11 17:00N 70°14' E 022°21'13 0.8
2017-Oct-11 00:00N 70°13' E 021°43'0 0.0
2017-Oct-10 23:30N 70°13' E 021°43'0 0.0
2017-Oct-10 23:00N 70°13' E 021°43'0 0.0
2017-Oct-10 22:30N 70°13' E 021°43'0 0.0
2017-Oct-10 22:00N 70°13' E 021°43'0 0.0
2017-Oct-10 21:30N 70°13' E 021°43'0 0.0
2017-Oct-10 21:00N 70°13' E 021°43'0 0.0
2017-Oct-10 20:30N 70°13' E 021°43'0 0.0
2017-Oct-10 20:00N 70°13' E 021°43'0 0.0
2017-Oct-10 19:30N 70°13' E 021°43'0 0.4
2017-Oct-10 19:00N 70°13' E 021°44'3 6.0
2017-Oct-10 18:30N 70°16' E 021°46'611.3
2017-Oct-10 18:00N 70°20' E 021°58'611.2
2017-Oct-10 17:30N 70°18' E 022°13'5 9.8
2017-Oct-10 17:00N 70°14' E 022°21'0 0.8
2017-Oct-10 16:30N 70°14' E 022°21'0 0.0
2017-Oct-10 15:59N 70°14' E 022°21'0 0.0
2017-Oct-10 15:30N 70°14' E 022°21'0 0.0
2017-Oct-10 15:00N 70°14' E 022°21'0 0.0
2017-Oct-10 14:00N 70°14' E 022°21'0 0.7
2017-Oct-10 13:30N 70°14' E 022°21'5 9.5
2017-Oct-10 13:00N 70°18' E 022°14'611.4
2017-Oct-10 12:30N 70°20' E 021°58'611.5
2017-Oct-10 12:00N 70°16' E 021°46'3 6.0
2017-Oct-10 11:30N 70°13' E 021°43'0 0.0
2017-Oct-10 11:00N 70°13' E 021°43'0 0.0
2017-Oct-10 10:30N 70°13' E 021°43'0 0.0
2017-Oct-10 09:59N 70°13' E 021°43'0 0.0
2017-Oct-10 09:30N 70°13' E 021°43'0 0.0
2017-Oct-10 09:00N 70°13' E 021°43'0 0.0
2017-Oct-10 08:29N 70°13' E 021°43'2 4.8
2017-Oct-10 07:59N 70°15' E 021°47'5 9.3
2017-Oct-10 07:30N 70°19' E 021°54'511.1
2017-Oct-10 07:00N 70°19' E 022°10'611.8
2017-Oct-10 06:30N 70°14' E 022°21'1 2.3
2017-Oct-10 06:00N 70°14' E 022°17'1 2.8
2017-Oct-10 05:30N 70°14' E 022°21'4 8.3
2017-Oct-10 05:00N 70°18' E 022°18'611.6
2017-Oct-10 04:30N 70°24' E 022°15'611.1
2017-Oct-10 04:00N 70°29' E 022°10'0 0.0
2017-Oct-10 03:30N 70°29' E 022°10'0 0.0
2017-Oct-10 03:00N 70°29' E 022°10'0 0.0
2017-Oct-10 02:30N 70°29' E 022°10'0 0.0
2017-Oct-10 02:00N 70°29' E 022°10'  

Dump ship's entire track history